createdAt,value
2023-02-22T00:04:49.860Z,70.85
2023-02-22T00:09:50.957Z,71.19
2023-02-22T00:14:53.143Z,70.76
2023-02-22T00:19:54.295Z,71.00
2023-02-22T00:24:55.605Z,71.62
2023-02-22T00:29:57.591Z,71.81
2023-02-22T00:35:00.177Z,71.67
2023-02-22T00:40:00.823Z,71.65
2023-02-22T00:45:03.718Z,71.57
2023-02-22T00:50:04.597Z,71.99
2023-02-22T00:55:06.449Z,72.15
2023-02-22T01:00:12.893Z,72.01
2023-02-22T01:05:16.353Z,71.66
2023-02-22T01:10:19.384Z,71.68
2023-02-22T01:15:22.680Z,71.87
2023-02-22T01:20:25.513Z,71.86
2023-02-22T01:25:29.799Z,72.53
2023-02-22T01:30:34.269Z,71.96
2023-02-22T01:35:36.592Z,71.32
2023-02-22T01:40:39.478Z,71.19
2023-02-22T01:45:48.676Z,71.26
2023-02-22T01:50:55.225Z,71.33
2023-02-22T01:55:57.286Z,70.87
2023-02-22T02:00:59.543Z,71.13
2023-02-22T02:06:04.009Z,71.28
2023-02-22T02:11:09.661Z,71.14
2023-02-22T02:16:11.879Z,70.88
2023-02-22T02:21:41.453Z,70.88
2023-02-22T02:27:04.025Z,71.72
2023-02-22T02:32:33.234Z,71.70
2023-02-22T02:37:41.918Z,71.36
2023-02-22T02:42:51.486Z,71.11
2023-02-22T02:47:58.748Z,71.54
2023-02-22T02:53:03.417Z,71.87
2023-02-22T02:58:05.844Z,71.87
2023-02-22T03:03:23.487Z,72.44
2023-02-22T03:08:33.485Z,72.25
2023-02-22T03:13:42.006Z,72.22
2023-02-22T03:18:52.359Z,72.53
2023-02-22T03:24:01.799Z,72.75
2023-02-22T03:29:05.232Z,72.71
2023-02-22T03:34:12.350Z,72.88
2023-02-22T03:39:17.110Z,72.77
2023-02-22T03:44:24.601Z,72.84
2023-02-22T03:49:36.112Z,72.91
2023-02-22T03:54:38.542Z,73.18
2023-02-22T03:59:40.279Z,73.78
2023-02-22T04:04:42.268Z,73.91
2023-02-22T04:09:43.228Z,74.28
2023-02-22T04:14:44.742Z,74.66
2023-02-22T04:19:46.783Z,75.15
2023-02-22T04:24:48.974Z,75.71
2023-02-22T04:29:51.537Z,75.88
2023-02-22T04:34:53.636Z,76.80
2023-02-22T04:39:54.395Z,77.19
2023-02-22T04:44:55.325Z,76.99
2023-02-22T04:49:57.505Z,77.23
2023-02-22T04:54:58.322Z,76.86
2023-02-22T04:59:59.723Z,76.61
2023-02-22T05:05:01.803Z,76.51
2023-02-22T05:10:03.257Z,76.69
2023-02-22T05:15:04.126Z,77.12
2023-02-22T05:20:08.671Z,76.69
2023-02-22T05:25:11.333Z,77.85
2023-02-22T05:30:13.359Z,78.02
2023-02-22T05:35:16.075Z,78.29
2023-02-22T05:40:18.369Z,77.63
2023-02-22T05:45:20.929Z,77.21
2023-02-22T05:50:23.243Z,76.45
2023-02-22T05:55:24.936Z,76.58
2023-02-22T06:00:29.308Z,76.88
2023-02-22T06:05:32.337Z,76.83
2023-02-22T06:10:34.379Z,76.78
2023-02-22T06:15:35.097Z,76.67
2023-02-22T06:20:37.083Z,76.02
2023-02-22T06:25:37.733Z,76.36
2023-02-22T06:30:38.675Z,76.11
2023-02-22T06:35:40.701Z,76.01
2023-02-22T06:40:41.673Z,75.81
2023-02-22T06:45:42.382Z,75.81
2023-02-22T06:50:44.378Z,75.15
2023-02-22T06:55:46.831Z,74.63
2023-02-22T07:00:47.525Z,74.88
2023-02-22T07:05:49.510Z,73.93
2023-02-22T07:10:50.902Z,73.68
2023-02-22T07:15:51.544Z,73.95
2023-02-22T07:20:54.327Z,74.27
2023-02-22T07:25:55.064Z,73.79
2023-02-22T07:30:55.894Z,73.55
2023-02-22T07:35:57.863Z,72.58
2023-02-22T07:40:58.942Z,72.80
2023-02-22T07:46:02.822Z,72.36
2023-02-22T07:51:05.978Z,72.35
2023-02-22T07:56:08.834Z,72.44
2023-02-22T08:01:10.230Z,71.47
2023-02-22T08:06:12.556Z,71.48
2023-02-22T08:11:14.648Z,70.71
2023-02-22T08:16:15.428Z,70.47
2023-02-22T08:21:18.946Z,70.16
2023-02-22T08:26:20.829Z,70.09
2023-02-22T08:31:21.664Z,69.52
2023-02-22T08:36:23.679Z,68.90
2023-02-22T08:41:24.329Z,68.15
2023-02-22T08:46:25.262Z,69.16
2023-02-22T08:51:27.916Z,68.69
2023-02-22T08:56:30.053Z,68.60
2023-02-22T09:01:33.476Z,67.18
2023-02-22T09:06:36.292Z,66.98
2023-02-22T09:11:37.013Z,65.44
2023-02-22T09:16:38.199Z,64.32
2023-02-22T09:21:41.262Z,64.89
2023-02-22T09:26:47.794Z,63.86
2023-02-22T09:31:48.551Z,64.12
2023-02-22T09:36:51.166Z,64.74
2023-02-22T09:41:58.742Z,62.91
2023-02-22T09:46:59.738Z,62.16
2023-02-22T09:52:06.046Z,62.84
2023-02-22T09:57:10.641Z,61.69
2023-02-22T10:02:24.613Z,60.38
2023-02-22T10:07:31.913Z,60.31
2023-02-22T10:12:45.138Z,60.92
2023-02-22T10:17:58.827Z,60.51
2023-02-22T10:23:12.815Z,59.33
2023-02-22T10:28:20.750Z,59.47
2023-02-22T10:33:24.122Z,60.02
2023-02-22T10:38:28.493Z,59.75
2023-02-22T10:43:29.318Z,59.40
2023-02-22T10:48:32.293Z,58.47
2023-02-22T10:53:37.900Z,58.08
2023-02-22T10:58:47.920Z,56.80
2023-02-22T11:03:58.220Z,57.17
2023-02-22T11:09:11.342Z,55.51
2023-02-22T11:14:13.213Z,55.40
2023-02-22T11:19:20.867Z,56.02
2023-02-22T11:24:30.299Z,55.03
2023-02-22T11:29:35.704Z,53.84
2023-02-22T11:34:42.690Z,52.30
2023-02-22T11:39:45.720Z,53.39
2023-02-22T11:44:47.021Z,53.94
2023-02-22T11:49:47.762Z,53.25
2023-02-22T11:55:04.324Z,52.54
2023-02-22T12:00:16.721Z,52.65
2023-02-22T12:05:28.890Z,52.38
2023-02-22T12:10:47.048Z,51.67
2023-02-22T12:15:56.248Z,51.49
2023-02-22T12:21:01.633Z,51.60
2023-02-22T12:26:11.820Z,52.32
2023-02-22T12:31:20.704Z,52.51
2023-02-22T12:36:26.032Z,52.02
2023-02-22T12:41:38.336Z,52.59
2023-02-22T12:46:43.018Z,53.75
2023-02-22T12:51:49.724Z,52.93
2023-02-22T12:56:56.673Z,53.04
2023-02-22T13:02:01.957Z,52.49
2023-02-22T13:07:24.172Z,51.88
2023-02-22T13:12:36.973Z,51.41
2023-02-22T13:17:45.054Z,52.14
2023-02-22T13:22:51.155Z,51.41
2023-02-22T13:28:00.104Z,52.19
2023-02-22T13:33:17.890Z,51.20
2023-02-22T13:38:38.266Z,51.78
2023-02-22T13:43:59.228Z,52.38
2023-02-22T13:49:12.958Z,53.10
2023-02-22T13:54:22.059Z,53.43
2023-02-22T13:59:28.277Z,53.30
2023-02-22T14:04:40.685Z,53.74
2023-02-22T14:09:46.975Z,53.63
2023-02-22T14:15:28.715Z,53.91
2023-02-22T14:20:32.510Z,55.18
2023-02-22T14:25:40.372Z,55.94
2023-02-22T14:30:42.512Z,56.36
2023-02-22T14:35:50.180Z,56.31
2023-02-22T14:40:53.650Z,55.45
2023-02-22T14:46:00.271Z,56.48
2023-02-22T14:51:19.083Z,56.51
2023-02-22T14:56:24.493Z,57.42
2023-02-22T15:01:47.430Z,60.16
2023-02-22T15:06:59.952Z,62.18
2023-02-22T15:12:13.957Z,63.18
2023-02-22T15:17:20.868Z,64.97
2023-02-22T15:22:24.975Z,65.65
2023-02-22T15:27:26.223Z,65.56
2023-02-22T15:32:36.246Z,66.68
2023-02-22T15:37:37.038Z,66.34
2023-02-22T15:42:45.187Z,67.70
2023-02-22T15:47:48.081Z,68.24
2023-02-22T15:52:53.110Z,68.68
2023-02-22T15:57:54.158Z,69.37
2023-02-22T16:02:58.817Z,70.50
2023-02-22T16:07:59.623Z,73.36
2023-02-22T16:13:14.441Z,71.50
2023-02-22T16:18:33.674Z,71.43
2023-02-22T16:23:45.961Z,73.02
2023-02-22T16:28:52.849Z,73.56
2023-02-22T16:33:55.921Z,74.45
2023-02-22T16:38:56.633Z,74.67
2023-02-22T16:43:57.369Z,75.30
2023-02-22T16:49:03.529Z,75.13
2023-02-22T16:54:04.197Z,75.62
2023-02-22T16:59:11.157Z,75.81
2023-02-22T17:04:17.750Z,75.96
2023-02-22T17:09:20.085Z,75.52
2023-02-22T17:14:24.488Z,75.65
2023-02-22T17:19:26.904Z,75.73
2023-02-22T17:24:29.222Z,75.45
2023-02-22T17:29:30.512Z,74.91
2023-02-22T17:34:32.642Z,75.05
2023-02-22T17:39:33.511Z,74.30
2023-02-22T17:44:35.357Z,74.57
2023-02-22T17:49:37.417Z,74.73
2023-02-22T17:54:40.330Z,76.37
2023-02-22T17:59:43.530Z,73.88
2023-02-22T18:04:45.560Z,74.21
2023-02-22T18:09:46.337Z,74.51
2023-02-22T18:14:47.101Z,74.98
2023-02-22T18:19:49.547Z,75.04
2023-02-22T18:24:50.293Z,74.71
2023-02-22T18:29:51.238Z,74.46
2023-02-22T18:34:53.530Z,74.84
2023-02-22T18:39:55.450Z,74.69
2023-02-22T18:45:00.596Z,74.48
2023-02-22T18:50:02.594Z,74.61
2023-02-22T18:55:03.332Z,74.37
2023-02-22T19:00:07.367Z,74.94
2023-02-22T19:05:10.580Z,74.64
2023-02-22T19:10:11.612Z,75.07
2023-02-22T19:15:12.416Z,75.08
2023-02-22T19:20:14.443Z,74.81
2023-02-22T19:25:15.193Z,75.50
2023-02-22T19:30:17.075Z,75.62
2023-02-22T19:35:26.964Z,75.90
2023-02-22T19:40:27.743Z,75.80
2023-02-22T19:45:28.550Z,76.69
2023-02-22T19:50:30.590Z,76.43
2023-02-22T19:55:32.357Z,76.23
2023-02-22T20:00:35.568Z,76.58
2023-02-22T20:05:41.940Z,76.19
2023-02-22T20:10:42.636Z,76.83
2023-02-22T20:15:45.121Z,76.87
2023-02-22T20:20:47.119Z,77.11
2023-02-22T20:25:53.793Z,76.67
2023-02-22T20:30:54.536Z,76.76
2023-02-22T20:35:56.630Z,77.69
2023-02-22T20:40:57.327Z,77.62
2023-02-22T20:46:01.348Z,77.38
2023-02-22T20:51:07.832Z,77.00
2023-02-22T20:56:12.321Z,76.55
2023-02-22T21:01:17.101Z,76.60
2023-02-22T21:06:21.522Z,77.28
2023-02-22T21:11:23.821Z,77.34
2023-02-22T21:16:26.201Z,76.58
2023-02-22T21:21:29.225Z,76.58
2023-02-22T21:26:31.695Z,76.88
2023-02-22T21:31:34.599Z,76.45
2023-02-22T21:36:38.862Z,76.11
2023-02-22T21:41:40.936Z,76.61
2023-02-22T21:46:41.860Z,76.15
2023-02-22T21:51:44.743Z,76.90
2023-02-22T21:56:45.414Z,76.87
2023-02-22T22:01:48.205Z,76.46
2023-02-22T22:06:53.003Z,76.25
2023-02-22T22:11:58.279Z,76.44
2023-02-22T22:17:01.034Z,76.63
2023-02-22T22:22:03.065Z,76.85
2023-02-22T22:27:06.519Z,76.68
2023-02-22T22:32:07.601Z,76.46
2023-02-22T22:37:09.654Z,76.82
2023-02-22T22:42:10.377Z,76.93
2023-02-22T22:47:13.149Z,76.70
2023-02-22T22:52:19.012Z,76.30
2023-02-22T22:57:20.020Z,77.08
2023-02-22T23:02:21.274Z,76.55
2023-02-22T23:07:23.352Z,76.86
2023-02-22T23:12:31.436Z,76.47
2023-02-22T23:17:41.054Z,76.33
2023-02-22T23:22:47.408Z,77.41
2023-02-22T23:27:48.389Z,77.12
2023-02-22T23:32:49.633Z,76.67
2023-02-22T23:37:53.473Z,76.63
2023-02-22T23:42:54.867Z,76.97
2023-02-22T23:47:57.159Z,77.31
2023-02-22T23:53:03.514Z,77.14
2023-02-22T23:58:04.316Z,76.63
